Time;durP1;ratioP1;P1;durP2;ratioP2;P2;SDS_P1;SDS_P2;PMS_P1;PMS_P2;Temp;Humidity;BMP_temperature;BMP_pressure;BME280_temperature;BME280_humidity;BME280_pressure;Samples;Min_cycle;Max_cycle;Signal;HPM_P1;HPM_P2
2023/05/09 00:01:11;;;;;;;22.35;18.88;;;;;;;;;;5283864;28;20020;-71
2023/05/09 00:03:42;;;;;;;23.98;18.98;;;;;;;;;;5282526;28;20082;-70
2023/05/09 00:06:14;;;;;;;22.03;19.03;;;;;;;;;;5283741;28;20016;-70
2023/05/09 00:08:45;;;;;;;22.80;17.80;;;;;;;;;;5283008;28;20330;-71
2023/05/09 00:11:16;;;;;;;24.80;17.60;;;;;;;;;;5282790;28;20030;-70
2023/05/09 00:13:49;;;;;;;21.87;16.77;;;;;;;;;;5283071;28;20024;-70
2023/05/09 00:16:22;;;;;;;19.08;15.88;;;;;;;;;;5283565;28;20617;-70
2023/05/09 00:18:54;;;;;;;19.17;16.55;;;;;;;;;;5281955;28;20451;-70
2023/05/09 00:21:27;;;;;;;18.42;16.50;;;;;;;;;;5283092;28;20455;-70
2023/05/09 00:23:59;;;;;;;20.65;17.25;;;;;;;;;;5282869;28;20571;-70
2023/05/09 00:26:30;;;;;;;18.90;16.63;;;;;;;;;;5282086;28;20013;-71
2023/05/09 00:29:01;;;;;;;19.48;16.52;;;;;;;;;;5282420;28;20422;-70
2023/05/09 00:31:32;;;;;;;18.20;16.10;;;;;;;;;;5282781;28;20613;-70
2023/05/09 00:34:03;;;;;;;16.85;15.05;;;;;;;;;;5281806;28;20031;-70
2023/05/09 00:36:35;;;;;;;17.90;14.77;;;;;;;;;;5282580;28;20074;-70
2023/05/09 00:39:06;;;;;;;16.90;14.87;;;;;;;;;;5281899;28;20894;-70
2023/05/09 00:41:38;;;;;;;19.02;15.45;;;;;;;;;;5282443;28;20684;-70
2023/05/09 00:44:09;;;;;;;17.40;15.27;;;;;;;;;;5282787;28;20020;-71
2023/05/09 00:46:40;;;;;;;14.07;12.67;;;;;;;;;;5281329;28;20013;-71
2023/05/09 00:49:11;;;;;;;15.40;13.50;;;;;;;;;;5282797;28;20278;-70
2023/05/09 00:51:42;;;;;;;14.98;13.32;;;;;;;;;;5281961;28;20091;-71
2023/05/09 00:54:14;;;;;;;16.58;12.52;;;;;;;;;;5281684;28;20132;-70
2023/05/09 00:56:45;;;;;;;13.60;12.18;;;;;;;;;;5281973;28;20475;-70
2023/05/09 00:59:17;;;;;;;14.77;12.03;;;;;;;;;;5282586;28;20119;-70
2023/05/09 01:01:48;;;;;;;15.40;12.10;;;;;;;;;;5281269;28;20266;-70
2023/05/09 01:04:19;;;;;;;15.55;11.13;;;;;;;;;;5282473;28;20107;-70
2023/05/09 01:06:59;;;;;;;12.75;11.32;;;;;;;;;;5281832;28;20013;-70
2023/05/09 01:09:30;;;;;;;14.52;11.55;;;;;;;;;;5281982;28;20327;-71
2023/05/09 01:12:20;;;;;;;13.13;11.15;;;;;;;;;;5282200;28;20016;-70
2023/05/09 01:14:56;;;;;;;15.82;11.45;;;;;;;;;;5280914;28;20290;-70
2023/05/09 01:17:51;;;;;;;14.88;11.50;;;;;;;;;;5282322;28;20095;-70
2023/05/09 01:20:34;;;;;;;12.05;10.75;;;;;;;;;;5279106;28;20028;-70
2023/05/09 01:23:05;;;;;;;11.75;10.35;;;;;;;;;;5281225;28;20582;-71
2023/05/09 01:25:49;;;;;;;13.25;11.25;;;;;;;;;;5281955;28;20096;-70
2023/05/09 01:28:23;;;;;;;13.63;11.05;;;;;;;;;;5281460;28;20267;-70
2023/05/09 01:30:55;;;;;;;13.70;11.75;;;;;;;;;;5281447;28;20024;-70
2023/05/09 01:33:27;;;;;;;13.02;11.63;;;;;;;;;;5282201;28;20024;-70
2023/05/09 01:36:00;;;;;;;13.05;11.63;;;;;;;;;;5280576;28;20029;-71
2023/05/09 01:38:33;;;;;;;14.20;12.20;;;;;;;;;;5281684;28;20052;-70
2023/05/09 01:41:05;;;;;;;14.50;11.25;;;;;;;;;;5280743;28;20028;-71
2023/05/09 01:43:37;;;;;;;14.18;11.73;;;;;;;;;;5281164;28;20017;-70
2023/05/09 01:46:08;;;;;;;16.50;12.48;;;;;;;;;;5282046;28;20021;-70
2023/05/09 01:48:40;;;;;;;15.27;12.52;;;;;;;;;;5281295;28;20039;-71
2023/05/09 01:51:13;;;;;;;14.32;11.95;;;;;;;;;;5281091;28;20021;-71
2023/05/09 01:53:45;;;;;;;12.02;10.82;;;;;;;;;;5281163;28;20038;-70
2023/05/09 01:56:17;;;;;;;14.52;11.55;;;;;;;;;;5281095;28;20029;-71
2023/05/09 01:58:49;;;;;;;15.20;12.55;;;;;;;;;;5281300;28;20031;-70
2023/05/09 02:01:21;;;;;;;13.52;11.60;;;;;;;;;;5281766;28;20023;-70
2023/05/09 02:03:53;;;;;;;16.30;11.90;;;;;;;;;;5280384;28;20452;-70
2023/05/09 02:06:24;;;;;;;18.80;11.90;;;;;;;;;;5281611;28;20020;-70
2023/05/09 02:08:56;;;;;;;15.23;12.07;;;;;;;;;;5281351;28;20515;-70
2023/05/09 02:11:27;;;;;;;14.15;11.75;;;;;;;;;;5281093;28;20024;-70
2023/05/09 02:13:58;;;;;;;14.40;12.30;;;;;;;;;;5281054;28;20036;-71
2023/05/09 02:16:30;;;;;;;17.03;12.57;;;;;;;;;;5281543;28;20104;-70
2023/05/09 02:19:01;;;;;;;15.53;11.67;;;;;;;;;;5280456;28;20267;-70
2023/05/09 02:21:32;;;;;;;16.33;12.15;;;;;;;;;;5281239;28;20259;-71
2023/05/09 02:24:04;;;;;;;17.52;12.15;;;;;;;;;;5281258;28;20027;-70
2023/05/09 02:26:35;;;;;;;15.63;11.93;;;;;;;;;;5280452;28;20021;-71
2023/05/09 02:29:06;;;;;;;13.93;11.25;;;;;;;;;;5281522;28;20370;-70
2023/05/09 02:31:39;;;;;;;13.60;11.23;;;;;;;;;;5280362;28;20027;-70
2023/05/09 02:34:10;;;;;;;15.30;12.18;;;;;;;;;;5281490;28;20024;-71
2023/05/09 02:36:42;;;;;;;14.77;11.77;;;;;;;;;;5280976;28;20452;-70
2023/05/09 02:39:13;;;;;;;18.55;12.80;;;;;;;;;;5280708;28;20028;-70
2023/05/09 02:41:48;;;;;;;15.20;12.05;;;;;;;;;;5280907;28;20020;-70
2023/05/09 02:44:19;;;;;;;14.13;12.27;;;;;;;;;;5281603;28;20340;-70
2023/05/09 02:46:51;;;;;;;16.05;12.73;;;;;;;;;;5280084;28;20017;-70
2023/05/09 02:49:22;;;;;;;17.05;12.52;;;;;;;;;;5281305;28;20044;-70
2023/05/09 02:51:53;;;;;;;14.77;12.45;;;;;;;;;;5282147;28;20259;-70
2023/05/09 02:54:24;;;;;;;14.93;12.57;;;;;;;;;;5284313;28;20036;-70
2023/05/09 02:56:55;;;;;;;18.13;13.43;;;;;;;;;;5284405;28;20298;-70
2023/05/09 02:59:26;;;;;;;15.27;13.15;;;;;;;;;;5285032;28;20266;-70
2023/05/09 03:01:58;;;;;;;17.60;12.87;;;;;;;;;;5283504;28;20024;-70
2023/05/09 03:04:29;;;;;;;17.37;13.00;;;;;;;;;;5284958;28;20370;-71
2023/05/09 03:07:00;;;;;;;19.77;13.57;;;;;;;;;;5283798;28;20251;-70
2023/05/09 03:09:32;;;;;;;14.85;12.98;;;;;;;;;;5284394;28;20104;-71
2023/05/09 03:12:03;;;;;;;17.02;13.57;;;;;;;;;;5284470;28;20359;-70
2023/05/09 03:14:34;;;;;;;16.38;12.45;;;;;;;;;;5283574;28;20111;-70
2023/05/09 03:17:05;;;;;;;15.30;12.40;;;;;;;;;;5284554;28;20036;-70
2023/05/09 03:19:36;;;;;;;17.90;13.70;;;;;;;;;;5284429;28;20024;-71
2023/05/09 03:22:08;;;;;;;18.90;14.00;;;;;;;;;;5283735;28;20263;-71
2023/05/09 03:24:39;;;;;;;17.47;13.17;;;;;;;;;;5283841;28;20358;-71
2023/05/09 03:27:10;;;;;;;15.77;12.75;;;;;;;;;;5284471;28;20676;-70
2023/05/09 03:29:41;;;;;;;14.87;12.87;;;;;;;;;;5283274;28;20016;-71
2023/05/09 03:32:12;;;;;;;17.43;13.50;;;;;;;;;;5284467;28;20354;-71
2023/05/09 03:34:44;;;;;;;15.13;12.07;;;;;;;;;;5282729;28;20297;-71
2023/05/09 03:37:15;;;;;;;14.80;12.70;;;;;;;;;;5284105;28;20514;-71
2023/05/09 03:39:46;;;;;;;16.05;12.23;;;;;;;;;;5283820;28;20345;-71
2023/05/09 03:42:17;;;;;;;16.45;13.23;;;;;;;;;;5283402;28;20294;-71
2023/05/09 03:44:48;;;;;;;15.93;12.75;;;;;;;;;;5283582;28;20035;-70
2023/05/09 03:47:20;;;;;;;16.95;12.90;;;;;;;;;;5284031;28;20031;-70
2023/05/09 03:49:52;;;;;;;16.67;13.20;;;;;;;;;;5282524;28;20017;-70
2023/05/09 03:52:23;;;;;;;19.52;13.13;;;;;;;;;;5283991;28;20027;-70
2023/05/09 03:54:54;;;;;;;16.33;12.57;;;;;;;;;;5282978;28;20032;-70
2023/05/09 03:57:25;;;;;;;16.38;14.05;;;;;;;;;;5282749;28;20374;-71
2023/05/09 03:59:57;;;;;;;14.98;12.63;;;;;;;;;;5282762;28;20087;-71
2023/05/09 04:02:28;;;;;;;16.13;12.73;;;;;;;;;;5282951;28;20549;-70
2023/05/09 04:04:59;;;;;;;16.90;12.55;;;;;;;;;;5281432;28;20574;-71
2023/05/09 04:07:30;;;;;;;15.60;12.60;;;;;;;;;;5283211;28;20020;-71
2023/05/09 04:10:02;;;;;;;14.73;12.38;;;;;;;;;;5282120;28;20028;-70
2023/05/09 04:12:33;;;;;;;14.30;11.77;;;;;;;;;;5283101;28;20409;-70
2023/05/09 04:15:05;;;;;;;13.25;11.57;;;;;;;;;;5282854;28;20086;-70
2023/05/09 04:17:36;;;;;;;12.98;10.57;;;;;;;;;;5282569;28;20021;-70
2023/05/09 04:20:07;;;;;;;15.93;12.15;;;;;;;;;;5282958;28;20103;-70
2023/05/09 04:22:38;;;;;;;13.57;11.40;;;;;;;;;;5282513;28;20267;-70
2023/05/09 04:25:11;;;;;;;13.27;11.27;;;;;;;;;;5282169;28;20009;-70
2023/05/09 04:27:43;;;;;;;11.93;10.18;;;;;;;;;;5282651;28;20097;-70
2023/05/09 04:30:14;;;;;;;12.63;9.52;;;;;;;;;;5283119;28;20017;-70
2023/05/09 04:32:45;;;;;;;11.70;10.20;;;;;;;;;;5281679;28;20259;-70
2023/05/09 04:35:17;;;;;;;13.43;10.25;;;;;;;;;;5282757;28;20113;-71
2023/05/09 04:37:48;;;;;;;10.88;8.98;;;;;;;;;;5282018;28;20555;-71
2023/05/09 04:40:19;;;;;;;10.95;9.23;;;;;;;;;;5282269;28;20738;-71
2023/05/09 04:42:50;;;;;;;11.32;9.15;;;;;;;;;;5282309;28;20028;-71
2023/05/09 04:45:22;;;;;;;13.27;8.50;;;;;;;;;;5281944;28;20024;-71
2023/05/09 04:47:53;;;;;;;9.98;8.48;;;;;;;;;;5282157;28;20745;-71
2023/05/09 04:50:24;;;;;;;9.60;8.60;;;;;;;;;;5282567;28;20103;-71
2023/05/09 04:52:55;;;;;;;10.25;8.23;;;;;;;;;;5281177;28;20259;-71
2023/05/09 04:55:26;;;;;;;10.60;8.33;;;;;;;;;;5282604;28;20422;-71
2023/05/09 04:57:58;;;;;;;10.38;8.75;;;;;;;;;;5281782;28;20382;-71
2023/05/09 05:00:29;;;;;;;9.23;8.23;;;;;;;;;;5281612;28;20021;-71
2023/05/09 05:03:00;;;;;;;10.23;8.98;;;;;;;;;;5282042;28;20255;-71
2023/05/09 05:05:31;;;;;;;9.67;8.67;;;;;;;;;;5282147;28;20020;-70
2023/05/09 05:08:02;;;;;;;10.20;8.70;;;;;;;;;;5281235;28;20345;-71
2023/05/09 05:10:34;;;;;;;9.45;7.97;;;;;;;;;;5282073;28;20270;-72
2023/05/09 05:13:05;;;;;;;9.73;8.30;;;;;;;;;;5281662;28;20039;-71
2023/05/09 05:15:36;;;;;;;8.68;7.78;;;;;;;;;;5280988;28;20020;-71
2023/05/09 05:18:07;;;;;;;7.93;7.13;;;;;;;;;;5281724;28;20059;-71
2023/05/09 05:20:39;;;;;;;9.52;7.50;;;;;;;;;;5280774;28;20273;-71
2023/05/09 05:23:11;;;;;;;9.32;8.27;;;;;;;;;;5281979;28;20019;-71
2023/05/09 05:25:42;;;;;;;9.27;7.72;;;;;;;;;;5281231;28;20025;-71
2023/05/09 05:28:13;;;;;;;8.73;7.85;;;;;;;;;;5281282;28;20345;-71
2023/05/09 05:30:44;;;;;;;10.00;8.80;;;;;;;;;;5281404;28;20757;-71
2023/05/09 05:33:15;;;;;;;10.87;8.70;;;;;;;;;;5281976;28;20611;-71
2023/05/09 05:35:46;;;;;;;9.65;8.02;;;;;;;;;;5280604;28;20278;-71
2023/05/09 05:38:18;;;;;;;9.00;8.07;;;;;;;;;;5281828;28;20255;-71
2023/05/09 05:40:49;;;;;;;9.98;8.48;;;;;;;;;;5281366;28;20467;-71
2023/05/09 05:43:20;;;;;;;8.45;7.65;;;;;;;;;;5281234;28;20016;-71
2023/05/09 05:45:51;;;;;;;10.02;8.23;;;;;;;;;;5281205;28;20012;-71
2023/05/09 05:48:22;;;;;;;10.65;8.35;;;;;;;;;;5280636;28;20279;-71
2023/05/09 05:50:54;;;;;;;10.13;8.35;;;;;;;;;;5280879;28;20369;-71
2023/05/09 05:53:26;;;;;;;10.70;9.10;;;;;;;;;;5281653;28;20025;-71
2023/05/09 05:55:57;;;;;;;10.50;9.38;;;;;;;;;;5280384;28;20527;-71
2023/05/09 05:58:28;;;;;;;9.25;8.20;;;;;;;;;;5281513;28;20037;-71
2023/05/09 06:00:59;;;;;;;9.15;7.75;;;;;;;;;;5280997;28;20027;-71
2023/05/09 06:03:31;;;;;;;9.40;8.48;;;;;;;;;;5280709;28;20375;-71
2023/05/09 06:06:02;;;;;;;9.95;8.68;;;;;;;;;;5281454;28;20371;-71
2023/05/09 06:08:33;;;;;;;10.68;8.70;;;;;;;;;;5281355;28;20019;-71
2023/05/09 06:11:04;;;;;;;8.63;7.78;;;;;;;;;;5280535;28;20073;-71
2023/05/09 06:13:36;;;;;;;9.43;8.45;;;;;;;;;;5281032;28;20305;-71
2023/05/09 06:16:07;;;;;;;10.93;8.70;;;;;;;;;;5281150;28;20387;-71
2023/05/09 06:18:39;;;;;;;8.57;7.55;;;;;;;;;;5280485;28;20017;-71
2023/05/09 06:21:10;;;;;;;8.43;7.43;;;;;;;;;;5281576;28;20020;-71
2023/05/09 06:23:41;;;;;;;7.87;7.07;;;;;;;;;;5280038;28;20020;-71
2023/05/09 06:26:13;;;;;;;8.67;7.67;;;;;;;;;;5281555;28;20352;-71
2023/05/09 06:28:44;;;;;;;8.75;7.93;;;;;;;;;;5284990;28;20274;-71
2023/05/09 06:31:16;;;;;;;8.73;7.75;;;;;;;;;;5284547;28;20190;-71
2023/05/09 06:33:47;;;;;;;11.18;8.68;;;;;;;;;;5284572;28;20017;-71
2023/05/09 06:36:18;;;;;;;9.77;8.00;;;;;;;;;;5285251;28;20024;-71
2023/05/09 06:38:49;;;;;;;9.33;8.10;;;;;;;;;;5283530;28;20306;-71
2023/05/09 06:41:21;;;;;;;9.50;8.40;;;;;;;;;;5285345;28;20289;-71
2023/05/09 06:43:52;;;;;;;9.55;8.25;;;;;;;;;;5284659;28;20017;-71
2023/05/09 06:46:23;;;;;;;9.63;6.97;;;;;;;;;;5284305;28;20027;-71
2023/05/09 06:48:54;;;;;;;8.20;7.40;;;;;;;;;;5284472;28;20363;-71
2023/05/09 06:51:26;;;;;;;8.95;7.68;;;;;;;;;;5284872;28;20278;-71
2023/05/09 06:53:57;;;;;;;12.45;7.93;;;;;;;;;;5283631;28;20036;-71
2023/05/09 06:56:28;;;;;;;9.32;8.48;;;;;;;;;;5284657;28;20017;-71
2023/05/09 06:58:59;;;;;;;9.27;6.63;;;;;;;;;;5283645;28;20021;-71
2023/05/09 07:01:30;;;;;;;9.63;6.78;;;;;;;;;;5284402;28;20262;-71
2023/05/09 07:04:01;;;;;;;8.32;7.40;;;;;;;;;;5284427;28;20342;-71
2023/05/09 07:06:33;;;;;;;8.90;6.57;;;;;;;;;;5283619;28;20017;-71
2023/05/09 07:09:04;;;;;;;8.15;6.30;;;;;;;;;;5284280;28;20024;-71
2023/05/09 07:11:36;;;;;;;6.57;5.93;;;;;;;;;;5284156;28;20092;-71
2023/05/09 07:14:07;;;;;;;7.88;6.57;;;;;;;;;;5283451;28;20037;-71
2023/05/09 07:16:38;;;;;;;9.05;6.55;;;;;;;;;;5284151;28;20104;-71
2023/05/09 07:19:09;;;;;;;7.25;5.75;;;;;;;;;;5284686;28;20021;-71
2023/05/09 07:21:40;;;;;;;7.35;5.65;;;;;;;;;;5283008;28;20250;-71
2023/05/09 07:24:12;;;;;;;9.18;5.88;;;;;;;;;;5284363;28;20078;-71
2023/05/09 07:26:43;;;;;;;9.50;7.13;;;;;;;;;;5283605;28;20017;-71
2023/05/09 07:29:14;;;;;;;8.95;6.30;;;;;;;;;;5283638;28;20491;-72
2023/05/09 07:31:45;;;;;;;6.68;5.65;;;;;;;;;;5283714;28;20047;-71
2023/05/09 07:34:18;;;;;;;6.57;5.83;;;;;;;;;;5283407;28;20040;-71
2023/05/09 07:36:49;;;;;;;7.50;5.72;;;;;;;;;;5283315;28;20353;-71
2023/05/09 07:39:21;;;;;;;6.47;5.70;;;;;;;;;;5283935;28;20105;-71
2023/05/09 07:41:52;;;;;;;5.57;4.83;;;;;;;;;;5282650;28;20020;-71
2023/05/09 07:44:23;;;;;;;5.33;4.47;;;;;;;;;;5283991;28;20273;-71
2023/05/09 07:46:54;;;;;;;7.30;5.53;;;;;;;;;;5283305;28;20251;-71
2023/05/09 07:49:25;;;;;;;5.60;5.10;;;;;;;;;;5282926;28;20555;-71
2023/05/09 07:51:57;;;;;;;6.10;5.47;;;;;;;;;;5283351;28;20021;-71
2023/05/09 07:54:28;;;;;;;6.63;5.85;;;;;;;;;;5283690;28;20040;-71
2023/05/09 07:56:59;;;;;;;6.57;5.13;;;;;;;;;;5281998;28;20045;-71
2023/05/09 07:59:30;;;;;;;6.78;5.68;;;;;;;;;;5283363;28;20758;-72
2023/05/09 08:02:01;;;;;;;7.93;5.93;;;;;;;;;;5282543;28;20019;-72
2023/05/09 08:04:36;;;;;;;7.32;5.63;;;;;;;;;;5283217;28;20737;-71
2023/05/09 08:07:07;;;;;;;7.70;4.97;;;;;;;;;;5283366;28;20404;-71
2023/05/09 08:09:39;;;;;;;5.20;4.80;;;;;;;;;;5282070;28;20145;-71
2023/05/09 08:12:10;;;;;;;5.35;4.55;;;;;;;;;;5283472;28;20016;-71
2023/05/09 08:14:41;;;;;;;5.30;4.80;;;;;;;;;;5282677;28;20126;-71
2023/05/09 08:17:12;;;;;;;4.60;4.20;;;;;;;;;;5282423;28;20346;-71
2023/05/09 08:19:43;;;;;;;6.03;4.13;;;;;;;;;;5282567;28;20040;-71
2023/05/09 08:22:15;;;;;;;5.32;4.05;;;;;;;;;;5283225;28;20266;-71
2023/05/09 08:24:46;;;;;;;4.63;3.58;;;;;;;;;;5281640;28;20027;-71
2023/05/09 08:27:17;;;;;;;5.20;3.43;;;;;;;;;;5283137;28;20452;-71
2023/05/09 08:29:49;;;;;;;4.88;3.10;;;;;;;;;;5282602;28;20631;-71
2023/05/09 08:32:20;;;;;;;5.38;3.00;;;;;;;;;;5282239;28;20633;-71
2023/05/09 08:34:51;;;;;;;3.97;3.58;;;;;;;;;;5282281;28;20735;-71
2023/05/09 08:37:22;;;;;;;4.20;3.80;;;;;;;;;;5281968;28;20020;-71
2023/05/09 08:39:53;;;;;;;3.85;3.45;;;;;;;;;;5282397;28;20266;-71
2023/05/09 08:42:25;;;;;;;3.83;3.50;;;;;;;;;;5282845;28;20110;-72
2023/05/09 08:44:56;;;;;;;4.22;3.83;;;;;;;;;;5281527;28;20259;-71
2023/05/09 08:47:28;;;;;;;4.63;4.22;;;;;;;;;;5282804;28;20026;-71
2023/05/09 08:50:00;;;;;;;4.80;4.00;;;;;;;;;;5281645;28;20028;-71
2023/05/09 08:52:31;;;;;;;6.22;3.10;;;;;;;;;;5281649;28;20020;-72
2023/05/09 08:55:06;;;;;;;4.15;3.33;;;;;;;;;;5282304;28;20035;-71
2023/05/09 08:57:37;;;;;;;4.70;3.72;;;;;;;;;;5281922;28;20057;-71
2023/05/09 09:00:10;;;;;;;4.85;4.45;;;;;;;;;;5281630;28;20471;-71
2023/05/09 09:02:42;;;;;;;4.15;3.70;;;;;;;;;;5282130;28;20024;-71
2023/05/09 09:05:13;;;;;;;4.45;3.80;;;;;;;;;;5281875;28;20043;-71
2023/05/09 09:07:45;;;;;;;3.90;3.20;;;;;;;;;;5281597;28;20009;-71
2023/05/09 09:10:16;;;;;;;4.57;3.25;;;;;;;;;;5282340;28;20024;-71
2023/05/09 09:12:47;;;;;;;3.67;3.38;;;;;;;;;;5280727;28;20017;-71
2023/05/09 09:15:20;;;;;;;4.22;3.15;;;;;;;;;;5282284;28;20357;-71
2023/05/09 09:17:55;;;;;;;4.57;2.83;;;;;;;;;;5281617;28;20012;-72
2023/05/09 09:20:30;;;;;;;3.63;2.60;;;;;;;;;;5281298;28;20107;-72
2023/05/09 09:23:03;;;;;;;3.15;2.08;;;;;;;;;;5281717;28;20017;-72
2023/05/09 09:25:34;;;;;;;2.95;2.65;;;;;;;;;;5281549;28;20096;-71
2023/05/09 09:28:05;;;;;;;3.72;2.70;;;;;;;;;;5281217;28;20099;-71
2023/05/09 09:30:42;;;;;;;4.37;2.83;;;;;;;;;;5281947;28;20020;-72
2023/05/09 09:33:23;;;;;;;4.18;2.72;;;;;;;;;;5282020;28;20630;-71
2023/05/09 09:35:54;;;;;;;3.65;2.65;;;;;;;;;;5281196;28;20035;-71
2023/05/09 09:38:26;;;;;;;2.90;2.22;;;;;;;;;;5281905;28;20020;-71
2023/05/09 09:40:57;;;;;;;2.45;1.63;;;;;;;;;;5280640;28;20614;-71
2023/05/09 09:43:29;;;;;;;2.95;1.80;;;;;;;;;;5281992;28;20016;-71
2023/05/09 09:46:01;;;;;;;3.65;2.08;;;;;;;;;;5281658;28;20020;-71
2023/05/09 09:48:33;;;;;;;2.97;1.77;;;;;;;;;;5280707;28;20096;-71
2023/05/09 09:51:10;;;;;;;2.63;1.90;;;;;;;;;;5281696;28;20095;-71
2023/05/09 09:53:41;;;;;;;3.45;1.83;;;;;;;;;;5281097;28;20400;-72
2023/05/09 09:56:12;;;;;;;2.53;1.90;;;;;;;;;;5280901;28;20129;-71
2023/05/09 09:58:44;;;;;;;3.90;1.85;;;;;;;;;;5280839;28;20500;-72
2023/05/09 10:01:15;;;;;;;2.42;1.98;;;;;;;;;;5282063;28;20056;-71
2023/05/09 10:03:46;;;;;;;4.25;2.38;;;;;;;;;;5284776;28;20479;-71
2023/05/09 10:06:18;;;;;;;4.15;2.80;;;;;;;;;;5285825;28;20025;-72
2023/05/09 10:08:49;;;;;;;3.97;2.58;;;;;;;;;;5284549;28;20028;-73
2023/05/09 10:11:20;;;;;;;4.75;2.60;;;;;;;;;;5285749;28;20346;-71
2023/05/09 10:13:51;;;;;;;3.00;2.13;;;;;;;;;;5285014;28;20024;-72
2023/05/09 10:16:23;;;;;;;5.95;2.28;;;;;;;;;;5285056;28;20023;-72
2023/05/09 10:18:54;;;;;;;5.13;2.85;;;;;;;;;;5285199;28;20017;-72
2023/05/09 10:21:25;;;;;;;5.47;2.22;;;;;;;;;;5285601;28;20062;-72
2023/05/09 10:23:57;;;;;;;2.40;2.17;;;;;;;;;;5284057;28;20031;-73
2023/05/09 10:26:31;;;;;;;3.00;2.28;;;;;;;;;;5285686;28;20371;-73
2023/05/09 10:29:06;;;;;;;5.22;2.53;;;;;;;;;;5285125;28;20077;-72
2023/05/09 10:31:39;;;;;;;3.10;2.30;;;;;;;;;;5284326;28;20021;-72
2023/05/09 10:34:10;;;;;;;3.13;2.47;;;;;;;;;;5285328;28;20494;-71
2023/05/09 10:36:42;;;;;;;2.40;2.17;;;;;;;;;;5284164;28;20025;-71
2023/05/09 10:39:13;;;;;;;4.72;2.78;;;;;;;;;;5285477;28;20024;-70
2023/05/09 10:41:48;;;;;;;2.88;2.58;;;;;;;;;;5284604;28;20020;-69
2023/05/09 10:44:21;;;;;;;2.17;1.98;;;;;;;;;;5284265;28;20017;-69
2023/05/09 10:46:53;;;;;;;4.88;2.50;;;;;;;;;;5284599;28;20024;-69
2023/05/09 10:49:24;;;;;;;2.92;2.40;;;;;;;;;;5285257;28;20013;-68
2023/05/09 10:51:55;;;;;;;2.55;2.35;;;;;;;;;;5283671;28;20013;-67
2023/05/09 10:54:27;;;;;;;2.95;2.17;;;;;;;;;;5285047;28;20370;-66
2023/05/09 10:56:59;;;;;;;4.22;2.45;;;;;;;;;;5283695;28;20047;-67
2023/05/09 10:59:32;;;;;;;2.72;2.40;;;;;;;;;;5282800;28;20025;-68
2023/05/09 11:02:03;;;;;;;4.80;2.47;;;;;;;;;;5283521;28;20096;-68
2023/05/09 11:04:35;;;;;;;3.72;2.85;;;;;;;;;;5283403;28;20099;-68
2023/05/09 11:07:23;;;;;;;3.17;2.88;;;;;;;;;;5282386;28;20028;-68
2023/05/09 11:10:07;;;;;;;3.08;2.47;;;;;;;;;;5282813;28;20009;-67
2023/05/09 11:12:54;;;;;;;2.83;2.60;;;;;;;;;;5281439;28;20143;-68
2023/05/09 11:15:28;;;;;;;3.08;2.50;;;;;;;;;;5283018;28;20032;-68
2023/05/09 11:18:06;;;;;;;2.60;2.25;;;;;;;;;;5282398;28;20085;-69
2023/05/09 11:20:41;;;;;;;3.53;2.80;;;;;;;;;;5281684;28;20078;-67
2023/05/09 11:23:17;;;;;;;2.88;2.58;;;;;;;;;;5283136;28;20455;-66
2023/05/09 11:25:48;;;;;;;3.10;1.80;;;;;;;;;;5282213;28;20115;-66
2023/05/09 11:28:29;;;;;;;3.47;1.73;;;;;;;;;;5282074;28;20559;-67
2023/05/09 11:31:09;;;;;;;2.92;1.88;;;;;;;;;;5282601;28;20266;-68
2023/05/09 11:33:42;;;;;;;2.00;1.50;;;;;;;;;;5281332;28;20021;-68
2023/05/09 11:36:17;;;;;;;3.33;1.50;;;;;;;;;;5282819;28;20066;-67
2023/05/09 11:38:58;;;;;;;2.67;1.27;;;;;;;;;;5282026;28;21023;-68
2023/05/09 11:41:30;;;;;;;4.07;1.45;;;;;;;;;;5279273;28;20021;-67
2023/05/09 11:44:01;;;;;;;2.72;1.13;;;;;;;;;;5282281;28;20024;-67
2023/05/09 11:46:32;;;;;;;2.38;1.38;;;;;;;;;;5282444;28;20024;-68
2023/05/09 11:49:05;;;;;;;1.98;1.30;;;;;;;;;;5280991;28;20265;-66
2023/05/09 11:51:37;;;;;;;2.83;1.30;;;;;;;;;;5281524;28;20438;-67
2023/05/09 11:54:09;;;;;;;11.85;1.80;;;;;;;;;;5281085;28;20139;-67
2023/05/09 11:56:40;;;;;;;1.70;1.10;;;;;;;;;;5244826;28;1042711;-67
2023/05/09 11:59:14;;;;;;;2.20;1.35;;;;;;;;;;5283280;28;20073;-67
2023/05/09 12:01:46;;;;;;;2.78;1.25;;;;;;;;;;5281670;28;20028;-67
2023/05/09 12:04:17;;;;;;;2.40;0.80;;;;;;;;;;5283218;28;20456;-68
2023/05/09 12:06:48;;;;;;;1.27;0.80;;;;;;;;;;5282456;28;20017;-67
2023/05/09 12:09:20;;;;;;;2.03;0.88;;;;;;;;;;5282426;28;20274;-68
2023/05/09 12:11:51;;;;;;;2.83;0.82;;;;;;;;;;5281337;28;20017;-67
2023/05/09 12:14:29;;;;;;;2.42;0.90;;;;;;;;;;5282365;28;20048;-67
2023/05/09 12:17:00;;;;;;;1.63;0.70;;;;;;;;;;5281611;28;20019;-67
2023/05/09 12:19:31;;;;;;;2.60;0.80;;;;;;;;;;5282290;28;20008;-67
2023/05/09 12:22:05;;;;;;;1.80;0.70;;;;;;;;;;5282654;28;20436;-67
2023/05/09 12:24:36;;;;;;;2.00;0.85;;;;;;;;;;5280996;28;20013;-68
2023/05/09 12:27:07;;;;;;;1.35;0.70;;;;;;;;;;5282910;28;20161;-68
2023/05/09 12:29:41;;;;;;;2.65;0.90;;;;;;;;;;5281607;28;20109;-68
2023/05/09 12:32:15;;;;;;;1.27;0.80;;;;;;;;;;5282737;28;20035;-68
2023/05/09 12:34:47;;;;;;;1.70;0.90;;;;;;;;;;5282312;28;20479;-68
2023/05/09 12:37:19;;;;;;;2.13;1.00;;;;;;;;;;5282038;28;20031;-67
2023/05/09 12:40:11;;;;;;;1.48;0.73;;;;;;;;;;5282005;28;20021;-67
2023/05/09 12:42:43;;;;;;;2.80;0.95;;;;;;;;;;5282100;28;20020;-68
2023/05/09 12:45:15;;;;;;;2.25;0.98;;;;;;;;;;5281829;28;20024;-67
2023/05/09 12:47:50;;;;;;;1.77;0.75;;;;;;;;;;5282388;28;20027;-68
2023/05/09 12:50:21;;;;;;;1.83;0.85;;;;;;;;;;5281856;28;20375;-67
2023/05/09 12:52:52;;;;;;;2.63;0.90;;;;;;;;;;5282011;28;20020;-67
2023/05/09 12:55:23;;;;;;;2.43;0.90;;;;;;;;;;5282449;28;20033;-67
2023/05/09 12:57:58;;;;;;;1.42;0.82;;;;;;;;;;5280843;28;20403;-68
2023/05/09 13:00:43;;;;;;;1.77;0.90;;;;;;;;;;5282273;28;20279;-67
2023/05/09 13:03:21;;;;;;;3.83;0.90;;;;;;;;;;5282607;28;20032;-68
2023/05/09 13:06:02;;;;;;;2.22;0.90;;;;;;;;;;5280750;28;20100;-67
2023/05/09 13:08:33;;;;;;;2.03;0.75;;;;;;;;;;5281846;28;20078;-67
2023/05/09 13:11:06;;;;;;;1.25;0.80;;;;;;;;;;5282069;28;20036;-67
2023/05/09 13:13:38;;;;;;;2.60;1.10;;;;;;;;;;5281024;28;20467;-67
2023/05/09 13:16:09;;;;;;;2.13;1.00;;;;;;;;;;5282153;28;20044;-67
2023/05/09 13:18:40;;;;;;;2.40;1.20;;;;;;;;;;5280726;28;20527;-68
2023/05/09 13:21:12;;;;;;;1.87;1.20;;;;;;;;;;5282379;28;20360;-68
2023/05/09 13:23:44;;;;;;;2.13;0.88;;;;;;;;;;5281367;28;20373;-67
2023/05/09 13:26:15;;;;;;;1.60;0.95;;;;;;;;;;5281463;28;20528;-67
2023/05/09 13:28:46;;;;;;;1.50;1.10;;;;;;;;;;5281384;28;20028;-68
2023/05/09 13:31:18;;;;;;;2.08;0.88;;;;;;;;;;5281870;28;20458;-68
2023/05/09 13:33:49;;;;;;;2.35;0.93;;;;;;;;;;5280631;28;20032;-68
2023/05/09 13:36:20;;;;;;;2.15;1.10;;;;;;;;;;5281879;28;20013;-67
2023/05/09 13:38:52;;;;;;;2.25;0.93;;;;;;;;;;5281157;28;20020;-68
2023/05/09 13:41:23;;;;;;;1.83;1.00;;;;;;;;;;5280985;28;20414;-68
2023/05/09 13:43:54;;;;;;;1.77;0.80;;;;;;;;;;5281035;28;20016;-67
2023/05/09 13:46:25;;;;;;;1.48;0.98;;;;;;;;;;5281898;28;20385;-68
2023/05/09 13:48:56;;;;;;;2.57;1.00;;;;;;;;;;5280281;28;20029;-67
2023/05/09 13:51:28;;;;;;;3.47;1.00;;;;;;;;;;5281778;28;20262;-67
2023/05/09 13:53:59;;;;;;;3.70;1.30;;;;;;;;;;5280067;28;20036;-67
2023/05/09 13:56:30;;;;;;;1.83;0.80;;;;;;;;;;5281058;28;20332;-68
2023/05/09 13:59:02;;;;;;;1.67;0.80;;;;;;;;;;5281200;28;20282;-68
2023/05/09 14:01:33;;;;;;;1.90;0.80;;;;;;;;;;5280262;28;20020;-68
2023/05/09 14:04:04;;;;;;;2.00;0.93;;;;;;;;;;5281155;28;20263;-67
2023/05/09 14:06:35;;;;;;;2.63;1.00;;;;;;;;;;5281079;28;20013;-68
2023/05/09 14:09:07;;;;;;;2.65;0.85;;;;;;;;;;5280273;28;20541;-68
2023/05/09 14:11:39;;;;;;;1.90;0.90;;;;;;;;;;5280704;28;20629;-68
2023/05/09 14:14:10;;;;;;;1.40;0.95;;;;;;;;;;5281309;28;20024;-69
2023/05/09 14:16:41;;;;;;;2.10;0.77;;;;;;;;;;5279893;28;20031;-68
2023/05/09 14:19:14;;;;;;;1.50;0.98;;;;;;;;;;5281174;28;20265;-68
2023/05/09 14:21:48;;;;;;;1.75;0.95;;;;;;;;;;5279876;28;20360;-68
2023/05/09 14:24:19;;;;;;;2.92;1.20;;;;;;;;;;5281242;28;20048;-69
2023/05/09 14:26:50;;;;;;;2.22;0.93;;;;;;;;;;5280717;28;20094;-68
2023/05/09 14:29:21;;;;;;;3.40;1.23;;;;;;;;;;5280667;28;20263;-68
2023/05/09 14:31:52;;;;;;;1.58;1.00;;;;;;;;;;5280530;28;20020;-69
2023/05/09 14:34:24;;;;;;;2.88;1.15;;;;;;;;;;5281544;28;20064;-68
2023/05/09 14:36:55;;;;;;;2.30;1.20;;;;;;;;;;5279885;28;20267;-67
2023/05/09 14:39:26;;;;;;;2.38;1.00;;;;;;;;;;5281530;28;20455;-67
2023/05/09 14:41:58;;;;;;;1.83;1.00;;;;;;;;;;5280438;28;20024;-67
2023/05/09 14:44:30;;;;;;;2.05;0.98;;;;;;;;;;5280172;28;20293;-68
2023/05/09 14:47:01;;;;;;;1.38;0.90;;;;;;;;;;5280979;28;20021;-68
2023/05/09 14:49:32;;;;;;;3.75;1.10;;;;;;;;;;5284761;28;20270;-68
2023/05/09 14:52:03;;;;;;;2.40;0.87;;;;;;;;;;5283842;28;20263;-68
2023/05/09 14:54:35;;;;;;;2.65;1.02;;;;;;;;;;5284440;28;20292;-68
2023/05/09 14:57:07;;;;;;;1.90;1.33;;;;;;;;;;5283661;28;20044;-68
2023/05/09 14:59:38;;;;;;;3.05;1.08;;;;;;;;;;5284388;28;20043;-69
2023/05/09 15:02:09;;;;;;;1.93;1.10;;;;;;;;;;5284704;28;20121;-68